Time;durP1;ratioP1;P1;durP2;ratioP2;P2;SDS_P1;SDS_P2;PMS_P1;PMS_P2;Temp;Humidity;BMP_temperature;BMP_pressure;BME280_temperature;BME280_humidity;BME280_pressure;Samples;Min_cycle;Max_cycle;Signal;HPM_P1;HPM_P2
2023/10/09 00:02:09;;;;;;;24.27;6.37;;;15.70;99.90;;;;;;5035786;28;20410;-68
2023/10/09 00:04:38;;;;;;;9.67;5.07;;;15.80;99.90;;;;;;5035607;28;20404;-68
2023/10/09 00:07:07;;;;;;;23.10;6.50;;;15.80;99.90;;;;;;5035143;28;20858;-68
2023/10/09 00:09:46;;;;;;;15.77;6.17;;;15.80;99.90;;;;;;5034970;28;20412;-69
2023/10/09 00:12:23;;;;;;;18.07;5.47;;;15.80;99.90;;;;;;5014161;28;20456;-68
2023/10/09 00:14:50;;;;;;;15.17;6.80;;;15.80;99.90;;;;;;5015555;28;20385;-68
2023/10/09 00:17:19;;;;;;;19.80;5.70;;;15.80;99.90;;;;;;5015411;28;20486;-68
2023/10/09 00:19:47;;;;;;;23.27;7.00;;;15.80;99.90;;;;;;5017067;28;20838;-68
2023/10/09 00:22:25;;;;;;;23.07;7.40;;;15.80;99.90;;;;;;5035198;28;20417;-68
2023/10/09 00:25:12;;;;;;;19.87;7.83;;;15.70;99.90;;;;;;5035356;28;20390;-68
2023/10/09 00:27:42;;;;;;;24.80;7.00;;;15.70;99.90;;;;;;5035245;28;20421;-68
2023/10/09 00:30:29;;;;;;;18.40;6.27;;;15.60;99.90;;;;;;5030723;28;20416;-69
2023/10/09 00:35:54;;;;;;;16.50;6.40;;;15.60;99.90;;;;;;5015246;28;20417;-68
2023/10/09 00:40:47;;;;;;;16.10;6.77;;;15.60;99.90;;;;;;5024724;28;20950;-68
2023/10/09 00:43:19;;;;;;;20.53;6.53;;;15.60;99.90;;;;;;5034752;28;20551;-68
2023/10/09 00:45:46;;;;;;;23.33;6.57;;;15.60;99.90;;;;;;5034608;28;20902;-68
2023/10/09 00:48:21;;;;;;;19.13;6.30;;;15.70;99.90;;;;;;5034520;28;20507;-67
2023/10/09 00:50:52;;;;;;;18.10;6.87;;;15.60;99.90;;;;;;5024823;28;20489;-69
2023/10/09 00:53:18;;;;;;;23.10;6.43;;;15.60;99.90;;;;;;5014715;28;20445;-69
2023/10/09 00:55:45;;;;;;;15.37;6.33;;;15.60;99.90;;;;;;5014734;28;20449;-69
2023/10/09 00:58:23;;;;;;;15.60;5.53;;;15.50;99.90;;;;;;5014546;28;20444;-69
2023/10/09 01:00:52;;;;;;;16.30;6.13;;;15.50;99.90;;;;;;5024627;28;20393;-69
2023/10/09 01:05:52;;;;;;;22.60;7.20;;;15.60;99.90;;;;;;5034543;28;20441;-69
2023/10/09 01:08:34;;;;;;;14.60;4.87;;;15.60;99.90;;;;;;5034336;28;20423;-69
2023/10/09 01:11:09;;;;;;;19.33;5.80;;;15.60;99.90;;;;;;5023155;28;20470;-69
2023/10/09 01:13:40;;;;;;;17.83;6.57;;;15.50;99.90;;;;;;5014786;28;20896;-69
2023/10/09 01:16:15;;;;;;;19.83;7.03;;;15.50;99.90;;;;;;5014478;28;20439;-69
2023/10/09 01:18:41;;;;;;;15.53;6.03;;;15.50;99.90;;;;;;5014485;28;20429;-69
2023/10/09 01:21:06;;;;;;;13.87;6.23;;;15.50;99.90;;;;;;5026116;28;20403;-69
2023/10/09 01:23:32;;;;;;;15.87;6.17;;;15.50;99.90;;;;;;5032617;28;20186;-69
2023/10/09 01:25:57;;;;;;;15.10;6.33;;;15.60;99.90;;;;;;5032655;28;20179;-69
2023/10/09 01:28:24;;;;;;;16.53;5.67;;;15.60;99.90;;;;;;5033620;28;20204;-69
2023/10/09 01:30:51;;;;;;;14.10;5.67;;;15.60;99.90;;;;;;5020992;28;20261;-68
2023/10/09 01:33:27;;;;;;;16.10;6.83;;;15.60;99.90;;;;;;5013818;28;20451;-69
2023/10/09 01:35:59;;;;;;;15.03;5.57;;;15.60;99.90;;;;;;5014221;28;20436;-69
2023/10/09 01:38:40;;;;;;;13.13;6.47;;;15.70;99.90;;;;;;5014220;28;20442;-69
2023/10/09 01:41:16;;;;;;;12.43;5.33;;;15.80;99.90;;;;;;5025391;28;20459;-69
2023/10/09 01:43:44;;;;;;;18.67;5.50;;;15.80;99.90;;;;;;5033637;28;20869;-69
2023/10/09 01:46:17;;;;;;;17.57;6.17;;;15.90;99.90;;;;;;5033625;28;20406;-69
2023/10/09 01:48:46;;;;;;;15.10;6.50;;;15.90;99.90;;;;;;5033486;28;20233;-69
2023/10/09 01:51:19;;;;;;;18.30;6.10;;;15.90;99.90;;;;;;5021130;28;20410;-69
2023/10/09 01:53:47;;;;;;;20.33;6.90;;;16.00;99.90;;;;;;5014981;28;20417;-69
2023/10/09 01:56:15;;;;;;;16.47;5.93;;;16.00;99.90;;;;;;5012999;28;20491;-69
2023/10/09 01:58:42;;;;;;;13.03;5.80;;;16.00;99.90;;;;;;5013399;28;20446;-69
2023/10/09 02:01:09;;;;;;;15.00;5.97;;;16.00;99.90;;;;;;5025019;28;20419;-69
2023/10/09 02:03:36;;;;;;;27.07;6.67;;;16.10;99.90;;;;;;5033332;28;20406;-69
2023/10/09 02:08:49;;;;;;;15.80;5.60;;;16.00;99.90;;;;;;5033665;28;20458;-69
2023/10/09 02:11:36;;;;;;;12.83;5.10;;;16.00;99.90;;;;;;5020814;28;20443;-69
2023/10/09 02:14:01;;;;;;;13.43;5.13;;;16.00;99.90;;;;;;5013256;28;20456;-69
2023/10/09 02:16:41;;;;;;;13.87;6.30;;;16.00;99.90;;;;;;5013600;28;20398;-69
2023/10/09 02:19:08;;;;;;;21.07;6.27;;;16.10;99.90;;;;;;5013925;28;20382;-69
2023/10/09 02:21:39;;;;;;;12.77;5.43;;;16.10;99.90;;;;;;5028312;28;20440;-69
2023/10/09 02:24:07;;;;;;;12.80;5.30;;;16.10;99.90;;;;;;5033617;28;20391;-69
2023/10/09 02:29:15;;;;;;;13.87;5.70;;;16.10;99.90;;;;;;5033440;28;20405;-69
2023/10/09 02:31:44;;;;;;;15.73;5.77;;;16.10;99.90;;;;;;5016169;28;20440;-69
2023/10/09 02:34:10;;;;;;;14.80;5.90;;;16.10;99.90;;;;;;5013273;28;20409;-69
2023/10/09 02:36:49;;;;;;;15.03;6.17;;;16.10;99.90;;;;;;5013461;28;20414;-69
2023/10/09 02:39:26;;;;;;;18.13;6.13;;;16.10;99.90;;;;;;5013664;28;20441;-69
2023/10/09 02:42:01;;;;;;;21.23;5.47;;;16.10;99.90;;;;;;5030163;28;20506;-69
2023/10/09 02:44:32;;;;;;;11.30;5.23;;;16.10;99.90;;;;;;5033092;28;20414;-68
2023/10/09 02:46:57;;;;;;;12.20;5.50;;;16.10;99.90;;;;;;5033786;28;20981;-69
2023/10/09 02:49:24;;;;;;;13.07;5.83;;;16.20;99.90;;;;;;5033705;28;20503;-68
2023/10/09 02:51:53;;;;;;;11.73;5.20;;;16.20;99.90;;;;;;5016200;28;20684;-68
2023/10/09 02:54:26;;;;;;;14.80;5.60;;;16.10;99.90;;;;;;5014285;28;20394;-69
2023/10/09 02:56:58;;;;;;;13.90;6.30;;;16.00;99.90;;;;;;5017600;28;20557;-69
2023/10/09 02:59:24;;;;;;;11.70;6.20;;;16.10;99.90;;;;;;5017107;28;20797;-68
2023/10/09 03:01:52;;;;;;;12.23;5.33;;;16.10;99.90;;;;;;5033017;28;20409;-68
2023/10/09 03:04:19;;;;;;;17.20;6.37;;;16.00;99.90;;;;;;5036470;28;20420;-69
2023/10/09 03:06:51;;;;;;;18.00;5.83;;;16.00;99.90;;;;;;5036421;28;20902;-68
2023/10/09 03:09:26;;;;;;;14.63;4.67;;;16.10;99.90;;;;;;5036617;28;20390;-67
2023/10/09 03:12:03;;;;;;;16.33;5.83;;;16.10;99.90;;;;;;5019907;28;20956;-68
2023/10/09 03:14:31;;;;;;;17.00;6.30;;;16.20;99.90;;;;;;5017203;28;20880;-68
2023/10/09 03:16:57;;;;;;;11.97;5.63;;;16.20;99.90;;;;;;5016367;28;20855;-68
2023/10/09 03:19:28;;;;;;;11.87;5.60;;;16.30;99.90;;;;;;5016408;28;20402;-69
2023/10/09 03:22:00;;;;;;;13.53;4.67;;;16.30;99.90;;;;;;5028392;28;20414;-68
2023/10/09 03:24:27;;;;;;;15.03;6.10;;;16.30;99.90;;;;;;5034886;28;20479;-68
2023/10/09 03:26:55;;;;;;;14.87;6.70;;;16.30;99.90;;;;;;5036444;28;20426;-68
2023/10/09 03:29:22;;;;;;;14.57;5.80;;;16.30;99.90;;;;;;5036398;28;20399;-68
2023/10/09 03:31:50;;;;;;;10.70;5.23;;;16.20;99.90;;;;;;5020360;28;20478;-69
2023/10/09 03:34:16;;;;;;;13.03;5.00;;;16.20;99.90;;;;;;5016416;28;20564;-68
2023/10/09 03:36:43;;;;;;;17.20;5.83;;;16.30;99.90;;;;;;5016251;28;20414;-68
2023/10/09 03:41:58;;;;;;;16.03;5.57;;;16.20;99.90;;;;;;5032355;28;20823;-69
2023/10/09 03:44:27;;;;;;;14.80;6.07;;;16.10;99.90;;;;;;5036257;28;20401;-69
2023/10/09 03:46:53;;;;;;;15.17;6.23;;;16.20;99.90;;;;;;5035790;28;20455;-68
2023/10/09 03:49:23;;;;;;;11.47;6.10;;;16.20;99.90;;;;;;5035700;28;20414;-69
2023/10/09 03:51:49;;;;;;;11.40;5.60;;;16.30;99.90;;;;;;5022720;28;20192;-68
2023/10/09 03:54:16;;;;;;;12.50;4.97;;;16.30;99.90;;;;;;5016006;28;20800;-69
2023/10/09 03:56:41;;;;;;;11.87;5.03;;;16.30;99.90;;;;;;5015449;28;20406;-69
2023/10/09 03:59:10;;;;;;;12.33;5.70;;;16.30;99.90;;;;;;5015921;28;20395;-68
2023/10/09 04:01:39;;;;;;;8.93;4.43;;;16.30;99.90;;;;;;5029634;28;20194;-68
2023/10/09 04:04:10;;;;;;;15.53;6.07;;;16.20;99.90;;;;;;5035900;28;20401;-69
2023/10/09 04:06:37;;;;;;;12.03;5.50;;;16.30;99.90;;;;;;5035603;28;20424;-69
2023/10/09 04:09:53;;;;;;;15.47;5.40;;;16.30;99.90;;;;;;5035448;28;20440;-69
2023/10/09 04:14:35;;;;;;;15.27;5.60;;;16.20;99.90;;;;;;5015555;28;20900;-68
2023/10/09 04:17:32;;;;;;;20.10;6.50;;;16.10;99.90;;;;;;5015415;28;20502;-68
2023/10/09 04:25:25;;;;;;;11.03;6.13;;;15.90;99.90;;;;;;4995837;28;20770;-69
2023/10/09 04:28:18;;;;;;;12.97;6.27;;;15.90;99.90;;;;;;4995630;28;20431;-68
2023/10/09 04:30:53;;;;;;;13.03;5.50;;;16.00;99.90;;;;;;5007727;28;20422;-68
2023/10/09 04:33:34;;;;;;;14.40;6.00;;;15.90;99.90;;;;;;5035523;28;20964;-68
2023/10/09 04:38:59;;;;;;;16.63;6.10;;;15.90;99.90;;;;;;5035023;28;20483;-68
2023/10/09 04:41:27;;;;;;;13.03;5.60;;;15.90;99.90;;;;;;5015966;28;20453;-68
2023/10/09 04:44:04;;;;;;;14.30;6.33;;;15.80;99.90;;;;;;5013546;28;20398;-68
2023/10/09 04:46:43;;;;;;;16.70;6.30;;;15.80;99.90;;;;;;5014866;28;20418;-68
2023/10/09 04:49:27;;;;;;;13.50;5.73;;;15.70;99.90;;;;;;5015117;28;20451;-68
2023/10/09 04:52:07;;;;;;;12.10;5.40;;;15.70;99.90;;;;;;5029724;28;20441;-67
2023/10/09 04:54:39;;;;;;;9.17;5.13;;;15.80;99.90;;;;;;5034934;28;20380;-68
2023/10/09 04:57:17;;;;;;;12.33;4.90;;;15.80;99.90;;;;;;5035125;28;21057;-68
2023/10/09 04:59:47;;;;;;;13.77;5.43;;;15.90;99.90;;;;;;5034627;28;20454;-68
2023/10/09 05:02:19;;;;;;;12.80;5.27;;;15.90;99.90;;;;;;5016370;28;20419;-68
2023/10/09 05:04:51;;;;;;;9.93;5.37;;;15.90;99.90;;;;;;5014637;28;20394;-69
2023/10/09 05:07:22;;;;;;;15.83;6.03;;;15.80;99.90;;;;;;5014439;28;20425;-68
2023/10/09 05:09:55;;;;;;;16.43;6.57;;;15.80;99.90;;;;;;5013192;28;20503;-68
2023/10/09 05:12:26;;;;;;;10.87;5.30;;;15.80;99.90;;;;;;5032773;28;20503;-68
2023/10/09 05:15:08;;;;;;;12.07;5.03;;;15.90;99.90;;;;;;5033109;28;20959;-70
2023/10/09 05:17:35;;;;;;;14.13;5.50;;;15.90;99.90;;;;;;4993914;28;20433;-69
2023/10/09 05:22:56;;;;;;;12.53;5.60;;;15.90;99.90;;;;;;4994487;28;20383;-68
2023/10/09 05:25:53;;;;;;;14.30;5.93;;;15.70;99.90;;;;;;4994391;28;20413;-69
2023/10/09 05:31:08;;;;;;;12.00;4.90;;;15.80;99.90;;;;;;5006909;28;20482;-68
2023/10/09 05:33:36;;;;;;;17.20;5.37;;;15.80;99.90;;;;;;4994443;28;20445;-69
2023/10/09 05:38:58;;;;;;;9.20;5.30;;;15.90;99.90;;;;;;4994250;28;20468;-69
2023/10/09 05:47:57;;;;;;;14.90;6.00;;;15.90;99.90;;;;;;5009937;28;20922;-69
2023/10/09 06:14:12;;;;;;;11.13;4.87;;;16.20;99.90;;;;;;5013632;28;20389;-67
2023/10/09 06:16:42;;;;;;;13.23;4.77;;;16.30;99.90;;;;;;5014106;28;20466;-68
2023/10/09 06:19:25;;;;;;;10.93;5.43;;;16.30;99.90;;;;;;5014342;28;20398;-67
2023/10/09 06:24:28;;;;;;;13.70;5.87;;;16.50;99.90;;;;;;5033246;28;20406;-67
2023/10/09 06:27:12;;;;;;;13.63;5.50;;;16.60;99.90;;;;;;5033388;28;20515;-67
2023/10/09 06:45:55;;;;;;;12.03;5.30;;;17.00;99.90;;;;;;5017376;28;20414;-67
2023/10/09 06:51:15;;;;;;;14.50;5.40;;;17.00;99.90;;;;;;5023419;28;20412;-75
2023/10/09 06:53:58;;;;;;;10.97;5.23;;;17.00;99.90;;;;;;5034221;28;20564;-71
2023/10/09 06:59:03;;;;;;;12.50;5.30;;;17.20;99.90;;;;;;5035736;28;20569;-70
2023/10/09 07:04:10;;;;;;;15.20;5.70;;;17.50;99.90;;;;;;5036641;28;20406;-71
2023/10/09 07:17:01;;;;;;;12.33;5.80;;;17.70;99.90;;;;;;5036706;28;21054;-69
2023/10/09 07:22:03;;;;;;;16.93;5.90;;;17.90;99.90;;;;;;5022774;28;20418;-69
2023/10/09 07:24:43;;;;;;;14.13;5.50;;;18.00;99.90;;;;;;5016741;28;20414;-67
2023/10/09 07:27:14;;;;;;;11.10;5.17;;;18.00;99.90;;;;;;5016690;28;20810;-68
2023/10/09 07:29:49;;;;;;;15.77;6.97;;;18.10;99.90;;;;;;5016548;28;20411;-70
2023/10/09 07:32:21;;;;;;;9.30;5.63;;;18.30;99.90;;;;;;5030644;28;20433;-70
2023/10/09 07:34:53;;;;;;;14.57;6.97;;;18.40;99.90;;;;;;5035826;28;20928;-69
2023/10/09 07:37:30;;;;;;;15.97;6.10;;;18.50;99.90;;;;;;5036123;28;20429;-69
2023/10/09 07:39:59;;;;;;;13.30;5.13;;;18.60;99.90;;;;;;5035045;28;20414;-69
2023/10/09 07:48:00;;;;;;;13.73;5.00;;;18.60;99.90;;;;;;5030036;28;20439;-70
2023/10/09 07:50:40;;;;;;;17.53;6.40;;;18.80;99.90;;;;;;5016854;28;20611;-75
2023/10/09 07:53:17;;;;;;;12.00;5.33;;;18.80;99.90;;;;;;5036143;28;20456;-76
2023/10/09 07:55:53;;;;;;;10.40;4.90;;;19.00;99.90;;;;;;5035527;28;20413;-71
2023/10/09 07:58:24;;;;;;;13.07;5.57;;;19.10;99.90;;;;;;5035388;28;20456;-72
2023/10/09 08:01:07;;;;;;;10.03;5.40;;;19.20;99.90;;;;;;5031854;28;20736;-72
2023/10/09 08:03:36;;;;;;;16.70;5.70;;;19.20;99.90;;;;;;5015916;28;20947;-70
2023/10/09 08:17:11;;;;;;;12.70;5.80;;;19.70;99.90;;;;;;5035618;28;20910;-70
2023/10/09 08:20:11;;;;;;;8.63;4.63;;;19.80;99.90;;;;;;5035332;28;20477;-71
2023/10/09 08:22:43;;;;;;;9.90;4.93;;;19.90;99.90;;;;;;5017181;28;20498;-74
2023/10/09 08:25:26;;;;;;;13.50;5.43;;;20.10;99.90;;;;;;5015348;28;20761;-74
2023/10/09 08:27:57;;;;;;;12.03;5.00;;;20.30;99.90;;;;;;5015521;28;20418;-77
2023/10/09 08:33:02;;;;;;;13.10;5.40;;;20.60;99.90;;;;;;5034916;28;20446;-77
2023/10/09 08:35:51;;;;;;;10.00;5.50;;;20.70;99.90;;;;;;5033696;28;20402;-77
2023/10/09 08:38:23;;;;;;;11.90;5.60;;;20.80;99.90;;;;;;5035026;28;20888;-70
2023/10/09 08:40:50;;;;;;;15.37;5.47;;;20.90;99.90;;;;;;5032081;28;20399;-71
2023/10/09 08:43:20;;;;;;;11.17;4.80;;;21.00;99.90;;;;;;5015006;28;20406;-72
2023/10/09 08:45:47;;;;;;;13.33;4.50;;;21.10;99.90;;;;;;5014892;28;20414;-72
2023/10/09 08:48:16;;;;;;;11.40;4.80;;;21.00;99.90;;;;;;5014858;28;20469;-72
2023/10/09 08:50:43;;;;;;;13.63;5.50;;;20.80;99.90;;;;;;5016340;28;20418;-70
2023/10/09 08:53:10;;;;;;;12.50;5.57;;;20.90;99.90;;;;;;5033513;28;20623;-73
2023/10/09 08:55:38;;;;;;;15.77;6.77;;;21.00;99.90;;;;;;5034296;28;20434;-72
2023/10/09 08:58:18;;;;;;;10.40;4.97;;;20.90;99.90;;;;;;5049421;23;20497;-71
2023/10/09 09:00:45;;;;;;;14.50;5.70;;;21.10;99.90;;;;;;5034380;28;20382;-72
2023/10/09 09:03:18;;;;;;;18.60;5.83;;;21.30;99.90;;;;;;5034237;28;20404;-71
2023/10/09 09:05:56;;;;;;;13.60;5.40;;;21.40;99.90;;;;;;5033917;28;20817;-72
2023/10/09 09:08:28;;;;;;;11.40;6.00;;;21.60;99.90;;;;;;5034205;28;20432;-71
2023/10/09 09:11:17;;;;;;;18.70;6.23;;;21.70;99.90;;;;;;5034224;28;20401;-72
2023/10/09 09:13:50;;;;;;;12.03;4.87;;;21.70;99.90;;;;;;5033763;28;20434;-70
2023/10/09 09:16:29;;;;;;;12.23;5.07;;;21.90;99.90;;;;;;5033899;28;20383;-73
2023/10/09 09:21:44;;;;;;;13.47;5.37;;;22.00;99.90;;;;;;5034068;28;20452;-74
2023/10/09 09:24:26;;;;;;;21.07;6.13;;;22.20;99.90;;;;;;5033975;28;20711;-74
2023/10/09 09:26:59;;;;;;;11.10;5.50;;;22.40;99.90;;;;;;5033881;28;20435;-75
2023/10/09 09:29:52;;;;;;;12.93;6.20;;;22.60;99.90;;;;;;5033477;28;20422;-75
2023/10/09 09:32:35;;;;;;;13.27;5.10;;;22.90;99.90;;;;;;5033582;28;20438;-76
2023/10/09 09:35:04;;;;;;;13.67;5.40;;;23.00;99.90;;;;;;5033650;28;20756;-72
2023/10/09 09:37:33;;;;;;;13.47;6.03;;;23.10;99.50;;;;;;5033374;28;20948;-72
2023/10/09 09:40:01;;;;;;;16.23;6.57;;;23.30;99.90;;;;;;5032940;28;20402;-72
2023/10/09 09:42:32;;;;;;;12.70;5.57;;;23.40;99.90;;;;;;5033363;28;20916;-72
2023/10/09 09:45:00;;;;;;;13.90;5.63;;;23.50;99.90;;;;;;5032935;28;20398;-72
2023/10/09 09:47:27;;;;;;;13.87;5.30;;;23.50;99.90;;;;;;5032875;28;20843;-73
2023/10/09 09:49:59;;;;;;;14.60;5.67;;;23.60;99.90;;;;;;5033218;28;20409;-72
2023/10/09 09:52:37;;;;;;;14.50;5.50;;;23.60;99.90;;;;;;5033098;28;20525;-74
2023/10/09 09:55:14;;;;;;;23.83;6.00;;;23.80;99.90;;;;;;5033220;28;20409;-75
2023/10/09 09:57:41;;;;;;;12.63;6.30;;;23.80;99.90;;;;;;5033199;28;20446;-72
2023/10/09 10:00:27;;;;;;;17.60;6.10;;;23.90;99.70;;;;;;5033194;28;20807;-72
2023/10/09 10:02:57;;;;;;;14.90;5.60;;;24.00;99.90;;;;;;5032981;28;20539;-72
2023/10/09 10:05:29;;;;;;;11.40;6.10;;;24.00;99.90;;;;;;5033434;28;20395;-73
2023/10/09 10:07:57;;;;;;;12.53;5.47;;;24.00;99.90;;;;;;5033509;28;20426;-71
2023/10/09 10:11:04;;;;;;;12.80;5.50;;;24.10;99.90;;;;;;5033065;28;20577;-72
2023/10/09 10:13:41;;;;;;;15.37;5.80;;;24.20;99.90;;;;;;5013442;28;20875;-72
2023/10/09 10:19:06;;;;;;;14.40;4.77;;;24.50;99.70;;;;;;5013420;28;20481;-73
2023/10/09 10:21:37;;;;;;;17.67;5.70;;;24.70;97.80;;;;;;5020737;28;20764;-73
2023/10/09 10:24:06;;;;;;;16.97;6.80;;;24.80;98.80;;;;;;5033024;28;20836;-71
2023/10/09 10:26:35;;;;;;;19.33;5.50;;;24.60;99.90;;;;;;5033153;28;20401;-71
2023/10/09 10:29:23;;;;;;;17.87;6.37;;;24.60;97.10;;;;;;5033024;28;20426;-72
2023/10/09 10:32:01;;;;;;;17.30;6.40;;;24.60;96.20;;;;;;5032022;28;20398;-72
2023/10/09 10:34:49;;;;;;;18.73;5.20;;;24.40;95.70;;;;;;5032843;28;20763;-72
2023/10/09 10:37:15;;;;;;;16.27;5.20;;;24.70;95.50;;;;;;5032631;28;20406;-72
2023/10/09 10:39:50;;;;;;;16.30;5.43;;;24.90;95.50;;;;;;5032708;28;20498;-72
2023/10/09 10:42:34;;;;;;;23.90;5.83;;;25.00;94.50;;;;;;5032630;28;20249;-70
2023/10/09 10:45:02;;;;;;;15.50;5.43;;;24.60;94.40;;;;;;5033003;28;20394;-71
2023/10/09 10:47:34;;;;;;;18.17;5.80;;;24.40;94.40;;;;;;5032875;28;20430;-69
2023/10/09 10:50:34;;;;;;;22.00;6.40;;;24.50;94.70;;;;;;5032925;28;20803;-70
2023/10/09 10:52:57;;;;;;;14.93;4.97;;;24.20;94.20;;;;;;5032363;28;20460;-70
2023/10/09 10:58:00;;;;;;;13.80;4.87;;;24.30;95.40;;;;;;5032705;28;20438;-70
2023/10/09 11:03:19;;;;;;;12.93;5.70;;;24.20;94.00;;;;;;5032768;28;20441;-71
2023/10/09 11:05:50;;;;;;;16.90;5.70;;;24.20;94.60;;;;;;5032897;28;20772;-71
2023/10/09 11:08:23;;;;;;;14.27;5.90;;;24.30;95.90;;;;;;5032582;28;20453;-72
2023/10/09 11:10:50;;;;;;;18.50;6.07;;;24.40;95.10;;;;;;5030971;28;20406;-71
2023/10/09 11:16:14;;;;;;;14.93;6.03;;;24.50;93.60;;;;;;5035156;28;20513;-71
2023/10/09 11:18:47;;;;;;;14.67;4.90;;;24.80;94.50;;;;;;5036335;28;20426;-70
2023/10/09 11:26:27;;;;;;;15.27;5.70;;;25.70;92.50;;;;;;5036321;28;20397;-71
2023/10/09 11:29:13;;;;;;;21.00;6.30;;;25.70;91.20;;;;;;5035976;28;20421;-70
2023/10/09 11:32:03;;;;;;;13.90;5.03;;;26.00;91.30;;;;;;5035927;28;21026;-72
2023/10/09 11:34:29;;;;;;;13.70;4.93;;;26.00;89.50;;;;;;5036610;28;20404;-72
2023/10/09 11:36:57;;;;;;;12.03;4.50;;;26.00;87.60;;;;;;5035992;28;20498;-70
2023/10/09 11:39:34;;;;;;;14.90;5.30;;;25.80;86.90;;;;;;5035732;28;20684;-70
2023/10/09 11:42:08;;;;;;;16.30;4.93;;;25.70;90.00;;;;;;5016130;28;20807;-72
2023/10/09 11:44:37;;;;;;;22.17;5.53;;;25.50;91.90;;;;;;5031132;28;20453;-71
2023/10/09 11:50:12;;;;;;;13.10;5.33;;;25.20;94.30;;;;;;5035877;28;20389;-71
2023/10/09 11:55:39;;;;;;;13.60;5.10;;;24.50;97.30;;;;;;5035660;28;20891;-69
2023/10/09 11:58:06;;;;;;;11.07;5.23;;;24.30;97.00;;;;;;5035166;28;20552;-72
2023/10/09 12:00:44;;;;;;;13.73;4.80;;;24.20;97.20;;;;;;5035530;28;20187;-71
2023/10/09 12:03:09;;;;;;;15.53;4.50;;;24.10;97.90;;;;;;5035191;28;20394;-69
2023/10/09 12:05:35;;;;;;;17.10;5.57;;;24.00;99.40;;;;;;5035215;28;20407;-71
2023/10/09 12:08:02;;;;;;;11.77;4.87;;;24.00;99.90;;;;;;5035051;28;20191;-71
2023/10/09 12:10:29;;;;;;;11.47;3.97;;;24.00;99.90;;;;;;5035377;28;20171;-71
2023/10/09 12:12:57;;;;;;;12.27;4.80;;;23.90;99.90;;;;;;5035842;28;20482;-72
2023/10/09 12:15:24;;;;;;;12.57;5.00;;;23.90;99.90;;;;;;5035811;28;20410;-72
2023/10/09 12:17:49;;;;;;;13.47;4.63;;;23.90;99.90;;;;;;5035578;28;20437;-71
2023/10/09 12:20:31;;;;;;;9.47;4.90;;;24.00;99.70;;;;;;5034928;28;20398;-72
2023/10/09 12:23:04;;;;;;;13.63;4.30;;;24.10;99.30;;;;;;5035223;28;20167;-72
2023/10/09 12:25:31;;;;;;;10.80;4.83;;;24.50;99.00;;;;;;5035079;28;20406;-72
2023/10/09 12:28:01;;;;;;;9.10;3.90;;;25.10;97.90;;;;;;5034790;28;20426;-69
2023/10/09 12:30:26;;;;;;;12.37;4.50;;;25.40;97.30;;;;;;5035182;28;20778;-71
2023/10/09 12:32:54;;;;;;;9.60;4.73;;;26.00;95.70;;;;;;5034678;28;20450;-72
2023/10/09 12:35:20;;;;;;;12.33;5.00;;;27.00;95.60;;;;;;5035155;28;20536;-74
2023/10/09 12:37:46;;;;;;;10.70;4.67;;;28.00;90.60;;;;;;5035022;28;20432;-72
2023/10/09 12:40:12;;;;;;;10.40;5.63;;;28.40;83.60;;;;;;5034912;28;20415;-73
2023/10/09 12:42:38;;;;;;;10.67;6.77;;;29.20;58.80;;;;;;5034902;28;20419;-72
2023/10/09 12:45:08;;;;;;;9.50;5.17;;;30.10;64.20;;;;;;5034741;28;20672;-71
2023/10/09 12:47:37;;;;;;;10.70;5.93;;;30.10;53.50;;;;;;5034924;28;20562;-71
2023/10/09 12:50:10;;;;;;;10.93;5.27;;;29.50;49.40;;;;;;5034614;28;20464;-71
2023/10/09 12:52:37;;;;;;;8.77;5.97;;;29.60;52.10;;;;;;5034261;28;20995;-71
2023/10/09 12:55:06;;;;;;;10.57;6.27;;;29.30;56.70;;;;;;5034502;28;20832;-74
2023/10/09 12:57:32;;;;;;;10.20;6.00;;;28.70;50.00;;;;;;5033935;28;20457;-74
2023/10/09 12:59:58;;;;;;;10.00;6.10;;;28.80;53.20;;;;;;5034211;28;20403;-71
2023/10/09 13:02:29;;;;;;;16.57;6.73;;;29.10;53.50;;;;;;5034374;28;20171;-72
2023/10/09 13:04:56;;;;;;;14.77;6.40;;;28.10;52.30;;;;;;5034587;28;20163;-69
2023/10/09 13:07:22;;;;;;;10.70;6.73;;;27.70;54.00;;;;;;5034242;28;20409;-74
2023/10/09 13:10:09;;;;;;;15.50;7.40;;;27.40;55.30;;;;;;5034444;28;20406;-74
2023/10/09 13:12:40;;;;;;;14.50;7.80;;;27.00;59.30;;;;;;5033506;28;20454;-73
2023/10/09 13:15:09;;;;;;;14.07;6.70;;;27.20;59.40;;;;;;5034457;28;20393;-72
2023/10/09 13:17:38;;;;;;;14.20;8.00;;;28.20;61.30;;;;;;5034054;28;20513;-71
2023/10/09 13:20:14;;;;;;;14.50;7.23;;;29.50;57.30;;;;;;5034059;28;20405;-73
2023/10/09 13:22:46;;;;;;;11.93;6.77;;;29.10;58.00;;;;;;5034141;28;20410;-73
2023/10/09 13:25:25;;;;;;;17.77;7.20;;;29.80;56.80;;;;;;5033980;28;20387;-70
2023/10/09 13:27:50;;;;;;;14.30;6.00;;;30.40;54.60;;;;;;5033658;28;20849;-71
2023/10/09 13:30:21;;;;;;;12.57;6.33;;;31.00;55.60;;;;;;5033580;28;20413;-71
2023/10/09 13:32:49;;;;;;;13.40;6.70;;;32.50;55.30;;;;;;5033536;28;20201;-72
2023/10/09 13:35:16;;;;;;;9.80;7.43;;;33.30;51.70;;;;;;5033712;28;20452;-72
2023/10/09 13:37:44;;;;;;;11.13;8.17;;;33.90;45.80;;;;;;5033053;28;20927;-71
2023/10/09 13:40:11;;;;;;;11.20;7.73;;;33.60;39.90;;;;;;5033235;28;20790;-71
2023/10/09 13:42:37;;;;;;;10.00;6.83;;;34.50;41.20;;;;;;5033465;28;20777;-71
2023/10/09 13:45:07;;;;;;;12.00;7.60;;;35.40;42.80;;;;;;5033285;28;20421;-71
2023/10/09 13:47:33;;;;;;;13.77;9.20;;;36.70;37.70;;;;;;5033434;28;20800;-71
2023/10/09 13:49:59;;;;;;;10.43;6.90;;;36.20;35.90;;;;;;5033075;28;20402;-72
2023/10/09 13:52:26;;;;;;;11.30;7.17;;;36.50;30.50;;;;;;5032872;28;20195;-73
2023/10/09 13:54:53;;;;;;;12.93;8.00;;;37.30;33.00;;;;;;5033399;28;20402;-73
2023/10/09 13:57:22;;;;;;;9.20;8.20;;;37.60;32.10;;;;;;5032619;28;20402;-74
2023/10/09 13:59:50;;;;;;;10.10;8.17;;;37.40;30.00;;;;;;5033508;28;20394;-72
2023/10/09 14:02:17;;;;;;;9.80;7.33;;;38.10;28.90;;;;;;5033475;28;20406;-74
2023/10/09 14:04:43;;;;;;;8.13;7.07;;;38.20;28.00;;;;;;5033393;28;20414;-74
2023/10/09 14:07:09;;;;;;;11.10;6.40;;;36.00;27.60;;;;;;5032928;28;20413;-74
2023/10/09 14:09:38;;;;;;;11.27;8.13;;;33.90;30.00;;;;;;5033219;28;20402;-75
2023/10/09 14:12:11;;;;;;;8.33;6.67;;;33.40;31.50;;;;;;5032539;28;20456;-73
2023/10/09 14:14:53;;;;;;;9.33;7.53;;;32.90;30.90;;;;;;5032674;28;20477;-71
2023/10/09 14:17:23;;;;;;;8.03;6.10;;;31.80;33.00;;;;;;5032424;28;20470;-73
2023/10/09 14:19:51;;;;;;;9.50;5.90;;;30.60;36.20;;;;;;5032909;28;20406;-70
2023/10/09 14:22:24;;;;;;;10.17;7.00;;;30.20;35.70;;;;;;5012635;28;20414;-70
2023/10/09 14:24:59;;;;;;;10.10;6.67;;;29.40;34.90;;;;;;5012944;28;20414;-71
2023/10/09 14:27:29;;;;;;;10.60;7.20;;;29.00;38.00;;;;;;5012995;28;20473;-71
2023/10/09 14:29:56;;;;;;;12.50;6.80;;;28.50;35.30;;;;;;5013753;28;20426;-71
2023/10/09 14:32:28;;;;;;;12.50;8.60;;;28.30;36.90;;;;;;5032871;28;20536;-72
2023/10/09 14:35:00;;;;;;;9.43;6.50;;;27.90;36.40;;;;;;5031855;28;20777;-71
2023/10/09 14:37:27;;;;;;;7.30;5.50;;;27.90;38.00;;;;;;5032960;28;20425;-71
2023/10/09 14:39:52;;;;;;;10.80;6.80;;;27.90;40.00;;;;;;5032826;28;20809;-70
2023/10/09 14:42:20;;;;;;;11.00;7.00;;;27.80;41.90;;;;;;5033026;28;20460;-71
2023/10/09 14:44:46;;;;;;;9.53;5.80;;;27.50;40.90;;;;;;5033453;28;20167;-70
2023/10/09 14:47:14;;;;;;;11.97;6.90;;;27.30;44.00;;;;;;5032594;28;20963;-71
2023/10/09 14:49:46;;;;;;;11.00;6.70;;;27.40;46.40;;;;;;5034552;28;20160;-71
2023/10/09 14:52:16;;;;;;;8.57;6.30;;;27.40;46.60;;;;;;5036662;28;20442;-71
2023/10/09 14:54:42;;;;;;;8.77;6.27;;;27.30;46.30;;;;;;5037395;28;20753;-72
2023/10/09 14:57:08;;;;;;;10.20;7.20;;;27.20;50.40;;;;;;5036926;28;20724;-74
2023/10/09 14:59:33;;;;;;;9.83;6.63;;;26.60;51.70;;;;;;5036326;22;20624;-68
2023/10/09 15:01:59;;;;;;;8.90;6.33;;;26.50;52.80;;;;;;5049588;28;20221;-68
2023/10/09 15:04:25;;;;;;;9.37;6.63;;;26.30;56.00;;;;;;5033420;28;20179;-68
2023/10/09 15:06:52;;;;;;;10.33;6.00;;;26.20;55.40;;;;;;5036594;28;20163;-71
2023/10/09 15:09:28;;;;;;;10.70;6.73;;;26.10;57.10;;;;;;5035053;28;20568;-68
2023/10/09 15:11:54;;;;;;;10.23;6.17;;;26.00;57.50;;;;;;5035202;28;20390;-73
2023/10/09 15:14:20;;;;;;;10.27;6.67;;;25.70;55.30;;;;;;5036395;28;20410;-71
2023/10/09 15:16:47;;;;;;;9.40;7.17;;;25.70;55.80;;;;;;5035076;28;20410;-70
2023/10/09 15:19:13;;;;;;;11.53;6.60;;;25.50;57.30;;;;;;5036302;28;20505;-70
2023/10/09 15:21:46;;;;;;;11.63;6.80;;;25.20;59.70;;;;;;5022092;28;20407;-68
2023/10/09 15:24:16;;;;;;;10.10;6.23;;;25.00;60.20;;;;;;5016576;28;20858;-68
2023/10/09 15:26:42;;;;;;;13.97;7.67;;;25.00;60.50;;;;;;5016380;28;20414;-66
2023/10/09 15:29:09;;;;;;;11.40;7.40;;;24.80;60.70;;;;;;5016723;28;20836;-67
2023/10/09 15:31:35;;;;;;;10.63;6.20;;;24.50;63.00;;;;;;5029894;28;20409;-68